sensor_id;sensor_type;location;lat;lon;timestamp;temperature;humidity
11035;DHT22;5571;48.110;-1.706;2023-12-04T00:00:37;5.90;99.90
11035;DHT22;5571;48.110;-1.706;2023-12-04T00:03:02;5.90;99.90
11035;DHT22;5571;48.110;-1.706;2023-12-04T00:05:28;6.00;99.90
11035;DHT22;5571;48.110;-1.706;2023-12-04T00:07:53;6.00;99.90
11035;DHT22;5571;48.110;-1.706;2023-12-04T00:10:19;6.00;99.90
11035;DHT22;5571;48.110;-1.706;2023-12-04T00:12:45;6.10;99.90
11035;DHT22;5571;48.110;-1.706;2023-12-04T00:15:11;6.10;99.90
11035;DHT22;5571;48.110;-1.706;2023-12-04T00:17:36;6.10;99.90
11035;DHT22;5571;48.110;-1.706;2023-12-04T00:20:07;6.10;99.90
11035;DHT22;5571;48.110;-1.706;2023-12-04T00:22:32;6.10;99.90
11035;DHT22;5571;48.110;-1.706;2023-12-04T00:24:58;6.10;99.90
11035;DHT22;5571;48.110;-1.706;2023-12-04T00:27:24;6.20;99.90
11035;DHT22;5571;48.110;-1.706;2023-12-04T00:29:52;6.20;99.90
11035;DHT22;5571;48.110;-1.706;2023-12-04T00:32:18;6.30;99.90
11035;DHT22;5571;48.110;-1.706;2023-12-04T00:34:43;6.30;99.90
11035;DHT22;5571;48.110;-1.706;2023-12-04T00:37:09;6.40;99.90
11035;DHT22;5571;48.110;-1.706;2023-12-04T00:39:35;6.40;99.90
11035;DHT22;5571;48.110;-1.706;2023-12-04T00:42:00;6.50;99.90
11035;DHT22;5571;48.110;-1.706;2023-12-04T00:44:26;6.50;99.90
11035;DHT22;5571;48.110;-1.706;2023-12-04T00:46:51;6.50;99.90
11035;DHT22;5571;48.110;-1.706;2023-12-04T00:49:17;6.50;99.90
11035;DHT22;5571;48.110;-1.706;2023-12-04T00:51:42;6.50;99.90
11035;DHT22;5571;48.110;-1.706;2023-12-04T00:54:08;6.50;99.90
11035;DHT22;5571;48.110;-1.706;2023-12-04T00:56:34;6.60;99.90
11035;DHT22;5571;48.110;-1.706;2023-12-04T00:58:59;6.60;99.90
11035;DHT22;5571;48.110;-1.706;2023-12-04T01:01:25;6.60;99.90
11035;DHT22;5571;48.110;-1.706;2023-12-04T01:03:51;6.70;99.90
11035;DHT22;5571;48.110;-1.706;2023-12-04T01:06:22;6.70;99.90
11035;DHT22;5571;48.110;-1.706;2023-12-04T01:08:50;6.70;99.90
11035;DHT22;5571;48.110;-1.706;2023-12-04T01:11:17;6.70;99.90
11035;DHT22;5571;48.110;-1.706;2023-12-04T01:13:44;6.60;99.90
11035;DHT22;5571;48.110;-1.706;2023-12-04T01:16:10;6.60;99.90
11035;DHT22;5571;48.110;-1.706;2023-12-04T01:18:36;6.60;99.90
11035;DHT22;5571;48.110;-1.706;2023-12-04T01:21:01;6.60;99.90
11035;DHT22;5571;48.110;-1.706;2023-12-04T01:23:27;6.70;99.90
11035;DHT22;5571;48.110;-1.706;2023-12-04T01:25:53;6.60;99.90
11035;DHT22;5571;48.110;-1.706;2023-12-04T01:28:19;6.60;99.90
11035;DHT22;5571;48.110;-1.706;2023-12-04T01:30:44;6.60;99.90
11035;DHT22;5571;48.110;-1.706;2023-12-04T01:33:10;6.60;99.90
11035;DHT22;5571;48.110;-1.706;2023-12-04T01:35:36;6.50;99.90
11035;DHT22;5571;48.110;-1.706;2023-12-04T01:38:01;6.50;99.90
11035;DHT22;5571;48.110;-1.706;2023-12-04T01:40:27;6.50;99.90
11035;DHT22;5571;48.110;-1.706;2023-12-04T01:42:53;6.50;99.90
11035;DHT22;5571;48.110;-1.706;2023-12-04T01:45:19;6.50;99.90
11035;DHT22;5571;48.110;-1.706;2023-12-04T01:47:45;6.50;99.90
11035;DHT22;5571;48.110;-1.706;2023-12-04T01:50:12;6.60;99.90
11035;DHT22;5571;48.110;-1.706;2023-12-04T01:52:38;6.50;99.90
11035;DHT22;5571;48.110;-1.706;2023-12-04T01:55:06;6.50;99.90
11035;DHT22;5571;48.110;-1.706;2023-12-04T01:57:32;6.50;99.90
11035;DHT22;5571;48.110;-1.706;2023-12-04T01:59:58;6.50;99.90
11035;DHT22;5571;48.110;-1.706;2023-12-04T02:02:24;6.50;99.90
11035;DHT22;5571;48.110;-1.706;2023-12-04T02:04:49;6.60;99.90
11035;DHT22;5571;48.110;-1.706;2023-12-04T02:07:15;6.70;99.90
11035;DHT22;5571;48.110;-1.706;2023-12-04T02:09:41;6.70;99.90
11035;DHT22;5571;48.110;-1.706;2023-12-04T02:12:06;6.80;99.90
11035;DHT22;5571;48.110;-1.706;2023-12-04T02:14:32;6.70;99.90
11035;DHT22;5571;48.110;-1.706;2023-12-04T02:16:58;6.80;99.90
11035;DHT22;5571;48.110;-1.706;2023-12-04T02:19:26;6.80;99.90
11035;DHT22;5571;48.110;-1.706;2023-12-04T02:21:52;6.80;99.90
11035;DHT22;5571;48.110;-1.706;2023-12-04T02:24:17;6.80;99.90
11035;DHT22;5571;48.110;-1.706;2023-12-04T02:26:53;6.80;99.90
11035;DHT22;5571;48.110;-1.706;2023-12-04T02:29:26;6.80;99.90
11035;DHT22;5571;48.110;-1.706;2023-12-04T02:31:56;6.90;99.90
11035;DHT22;5571;48.110;-1.706;2023-12-04T02:34:24;6.80;99.90
11035;DHT22;5571;48.110;-1.706;2023-12-04T02:36:51;6.90;99.90
11035;DHT22;5571;48.110;-1.706;2023-12-04T02:39:18;6.90;99.90
11035;DHT22;5571;48.110;-1.706;2023-12-04T02:41:44;6.90;99.90
11035;DHT22;5571;48.110;-1.706;2023-12-04T02:44:09;6.90;99.90
11035;DHT22;5571;48.110;-1.706;2023-12-04T02:46:36;6.90;99.90
11035;DHT22;5571;48.110;-1.706;2023-12-04T02:49:02;6.90;99.90
11035;DHT22;5571;48.110;-1.706;2023-12-04T02:51:27;6.90;99.90
11035;DHT22;5571;48.110;-1.706;2023-12-04T02:53:53;6.90;99.90
11035;DHT22;5571;48.110;-1.706;2023-12-04T02:56:18;7.00;99.90
11035;DHT22;5571;48.110;-1.706;2023-12-04T02:58:44;7.00;99.90
11035;DHT22;5571;48.110;-1.706;2023-12-04T03:01:09;7.00;99.90
11035;DHT22;5571;48.110;-1.706;2023-12-04T03:03:35;7.10;99.90
11035;DHT22;5571;48.110;-1.706;2023-12-04T03:06:01;7.10;99.90
11035;DHT22;5571;48.110;-1.706;2023-12-04T03:08:27;7.00;99.90
11035;DHT22;5571;48.110;-1.706;2023-12-04T03:10:52;7.10;99.90
11035;DHT22;5571;48.110;-1.706;2023-12-04T03:13:18;7.10;99.90
11035;DHT22;5571;48.110;-1.706;2023-12-04T03:15:43;7.00;99.90
11035;DHT22;5571;48.110;-1.706;2023-12-04T03:18:09;7.10;99.90
11035;DHT22;5571;48.110;-1.706;2023-12-04T03:20:35;7.10;99.90
11035;DHT22;5571;48.110;-1.706;2023-12-04T03:23:00;7.10;99.90
11035;DHT22;5571;48.110;-1.706;2023-12-04T03:25:26;7.10;99.90
11035;DHT22;5571;48.110;-1.706;2023-12-04T03:27:51;7.10;99.90
11035;DHT22;5571;48.110;-1.706;2023-12-04T03:30:17;7.10;99.90
11035;DHT22;5571;48.110;-1.706;2023-12-04T03:32:43;7.10;99.90
11035;DHT22;5571;48.110;-1.706;2023-12-04T03:35:08;7.10;99.90
11035;DHT22;5571;48.110;-1.706;2023-12-04T03:37:34;7.10;99.90
11035;DHT22;5571;48.110;-1.706;2023-12-04T03:39:59;7.10;99.90
11035;DHT22;5571;48.110;-1.706;2023-12-04T03:42:25;7.10;99.90
11035;DHT22;5571;48.110;-1.706;2023-12-04T03:44:51;7.10;99.90
11035;DHT22;5571;48.110;-1.706;2023-12-04T03:47:16;7.10;99.90
11035;DHT22;5571;48.110;-1.706;2023-12-04T03:49:42;7.10;99.90
11035;DHT22;5571;48.110;-1.706;2023-12-04T03:52:07;7.10;99.90
11035;DHT22;5571;48.110;-1.706;2023-12-04T03:54:33;7.20;99.90
11035;DHT22;5571;48.110;-1.706;2023-12-04T03:56:58;7.10;99.90
11035;DHT22;5571;48.110;-1.706;2023-12-04T03:59:24;7.20;99.90
11035;DHT22;5571;48.110;-1.706;2023-12-04T04:01:49;7.20;99.90
11035;DHT22;5571;48.110;-1.706;2023-12-04T04:04:15;7.30;99.90
11035;DHT22;5571;48.110;-1.706;2023-12-04T04:06:41;7.30;99.90
11035;DHT22;5571;48.110;-1.706;2023-12-04T04:09:06;7.30;99.90
11035;DHT22;5571;48.110;-1.706;2023-12-04T04:11:32;7.30;99.90
11035;DHT22;5571;48.110;-1.706;2023-12-04T04:13:57;7.40;99.90
11035;DHT22;5571;48.110;-1.706;2023-12-04T04:16:23;7.30;99.90
11035;DHT22;5571;48.110;-1.706;2023-12-04T04:18:48;7.40;99.90
11035;DHT22;5571;48.110;-1.706;2023-12-04T04:21:14;7.40;99.90
11035;DHT22;5571;48.110;-1.706;2023-12-04T04:23:40;7.40;99.90
11035;DHT22;5571;48.110;-1.706;2023-12-04T04:26:05;7.50;99.90
11035;DHT22;5571;48.110;-1.706;2023-12-04T04:28:32;7.50;99.90
11035;DHT22;5571;48.110;-1.706;2023-12-04T04:30:58;7.60;99.90
11035;DHT22;5571;48.110;-1.706;2023-12-04T04:33:24;7.50;99.90
11035;DHT22;5571;48.110;-1.706;2023-12-04T04:35:49;7.60;99.90
11035;DHT22;5571;48.110;-1.706;2023-12-04T04:38:15;7.70;99.90
11035;DHT22;5571;48.110;-1.706;2023-12-04T04:40:40;7.70;99.90
11035;DHT22;5571;48.110;-1.706;2023-12-04T04:43:10;7.70;99.90
11035;DHT22;5571;48.110;-1.706;2023-12-04T04:45:35;7.70;99.90
11035;DHT22;5571;48.110;-1.706;2023-12-04T04:48:01;7.70;99.90
11035;DHT22;5571;48.110;-1.706;2023-12-04T04:50:27;7.70;99.90
11035;DHT22;5571;48.110;-1.706;2023-12-04T04:52:52;7.70;99.90
11035;DHT22;5571;48.110;-1.706;2023-12-04T04:55:19;7.90;99.90
11035;DHT22;5571;48.110;-1.706;2023-12-04T04:57:45;7.90;99.90
11035;DHT22;5571;48.110;-1.706;2023-12-04T05:00:11;7.90;99.90
11035;DHT22;5571;48.110;-1.706;2023-12-04T05:02:37;8.00;99.90
11035;DHT22;5571;48.110;-1.706;2023-12-04T05:05:03;8.00;99.90
11035;DHT22;5571;48.110;-1.706;2023-12-04T05:07:29;8.00;99.90
11035;DHT22;5571;48.110;-1.706;2023-12-04T05:09:55;7.90;99.90
11035;DHT22;5571;48.110;-1.706;2023-12-04T05:12:20;8.00;99.90
11035;DHT22;5571;48.110;-1.706;2023-12-04T05:14:46;7.90;99.90
11035;DHT22;5571;48.110;-1.706;2023-12-04T05:17:11;7.90;99.90
11035;DHT22;5571;48.110;-1.706;2023-12-04T05:19:37;7.90;99.90
11035;DHT22;5571;48.110;-1.706;2023-12-04T05:22:03;7.90;99.90
11035;DHT22;5571;48.110;-1.706;2023-12-04T05:24:28;7.90;99.90
11035;DHT22;5571;48.110;-1.706;2023-12-04T05:26:54;7.90;99.90
11035;DHT22;5571;48.110;-1.706;2023-12-04T05:29:19;7.90;99.90
11035;DHT22;5571;48.110;-1.706;2023-12-04T05:31:45;7.90;99.90
11035;DHT22;5571;48.110;-1.706;2023-12-04T05:34:10;7.90;99.90
11035;DHT22;5571;48.110;-1.706;2023-12-04T05:36:38;7.90;99.90
11035;DHT22;5571;48.110;-1.706;2023-12-04T05:39:03;7.90;99.90
11035;DHT22;5571;48.110;-1.706;2023-12-04T05:41:30;7.90;99.90
11035;DHT22;5571;48.110;-1.706;2023-12-04T05:43:55;8.00;99.90
11035;DHT22;5571;48.110;-1.706;2023-12-04T05:46:21;8.00;99.90
11035;DHT22;5571;48.110;-1.706;2023-12-04T05:48:47;8.00;99.90
11035;DHT22;5571;48.110;-1.706;2023-12-04T05:51:12;8.00;99.90
11035;DHT22;5571;48.110;-1.706;2023-12-04T05:53:38;8.10;99.90
11035;DHT22;5571;48.110;-1.706;2023-12-04T05:56:05;8.10;99.90
11035;DHT22;5571;48.110;-1.706;2023-12-04T05:58:31;8.10;99.90
11035;DHT22;5571;48.110;-1.706;2023-12-04T06:00:57;8.10;99.90
11035;DHT22;5571;48.110;-1.706;2023-12-04T06:03:22;8.20;99.90
11035;DHT22;5571;48.110;-1.706;2023-12-04T06:05:48;8.20;99.90
11035;DHT22;5571;48.110;-1.706;2023-12-04T06:08:14;8.30;99.90
11035;DHT22;5571;48.110;-1.706;2023-12-04T06:10:40;8.30;99.90
11035;DHT22;5571;48.110;-1.706;2023-12-04T06:13:06;8.40;99.90
11035;DHT22;5571;48.110;-1.706;2023-12-04T06:15:31;8.40;99.90
11035;DHT22;5571;48.110;-1.706;2023-12-04T06:17:57;8.50;99.90
11035;DHT22;5571;48.110;-1.706;2023-12-04T06:20:22;8.50;99.90
11035;DHT22;5571;48.110;-1.706;2023-12-04T06:22:48;8.50;99.90
11035;DHT22;5571;48.110;-1.706;2023-12-04T06:25:14;8.50;99.90
11035;DHT22;5571;48.110;-1.706;2023-12-04T06:27:40;8.50;99.90
11035;DHT22;5571;48.110;-1.706;2023-12-04T06:30:06;8.50;99.90
11035;DHT22;5571;48.110;-1.706;2023-12-04T06:32:32;8.50;99.90
11035;DHT22;5571;48.110;-1.706;2023-12-04T06:34:58;8.50;99.90
11035;DHT22;5571;48.110;-1.706;2023-12-04T06:37:24;8.50;99.90
11035;DHT22;5571;48.110;-1.706;2023-12-04T06:39:52;8.50;99.90
11035;DHT22;5571;48.110;-1.706;2023-12-04T06:42:19;8.50;99.90
11035;DHT22;5571;48.110;-1.706;2023-12-04T06:44:45;8.50;99.90
11035;DHT22;5571;48.110;-1.706;2023-12-04T06:47:12;8.50;99.90
11035;DHT22;5571;48.110;-1.706;2023-12-04T06:49:37;8.60;99.90
11035;DHT22;5571;48.110;-1.706;2023-12-04T06:52:04;8.50;99.90
11035;DHT22;5571;48.110;-1.706;2023-12-04T06:54:29;8.60;99.90
11035;DHT22;5571;48.110;-1.706;2023-12-04T06:56:55;8.50;99.90
11035;DHT22;5571;48.110;-1.706;2023-12-04T06:59:21;8.60;99.90
11035;DHT22;5571;48.110;-1.706;2023-12-04T07:01:47;8.70;99.90
11035;DHT22;5571;48.110;-1.706;2023-12-04T07:04:13;8.70;99.90
11035;DHT22;5571;48.110;-1.706;2023-12-04T07:06:39;8.80;99.90
11035;DHT22;5571;48.110;-1.706;2023-12-04T07:09:05;8.70;99.90
11035;DHT22;5571;48.110;-1.706;2023-12-04T07:11:33;8.70;99.90
11035;DHT22;5571;48.110;-1.706;2023-12-04T07:13:59;8.70;99.90
11035;DHT22;5571;48.110;-1.706;2023-12-04T07:16:24;8.80;99.90
11035;DHT22;5571;48.110;-1.706;2023-12-04T07:18:50;8.80;99.90
11035;DHT22;5571;48.110;-1.706;2023-12-04T07:21:16;8.80;99.90
11035;DHT22;5571;48.110;-1.706;2023-12-04T07:23:41;8.80;99.90
11035;DHT22;5571;48.110;-1.706;2023-12-04T07:26:07;8.80;99.90
11035;DHT22;5571;48.110;-1.706;2023-12-04T07:28:33;8.90;99.90
11035;DHT22;5571;48.110;-1.706;2023-12-04T07:31:00;8.90;99.90
11035;DHT22;5571;48.110;-1.706;2023-12-04T07:33:27;8.90;99.90
11035;DHT22;5571;48.110;-1.706;2023-12-04T07:35:52;9.00;99.90
11035;DHT22;5571;48.110;-1.706;2023-12-04T07:38:18;9.10;99.90
11035;DHT22;5571;48.110;-1.706;2023-12-04T07:40:45;9.10;99.90
11035;DHT22;5571;48.110;-1.706;2023-12-04T07:43:10;9.10;99.90
11035;DHT22;5571;48.110;-1.706;2023-12-04T07:45:36;9.10;99.90
11035;DHT22;5571;48.110;-1.706;2023-12-04T07:48:03;9.10;99.90
11035;DHT22;5571;48.110;-1.706;2023-12-04T07:50:29;9.10;99.90
11035;DHT22;5571;48.110;-1.706;2023-12-04T07:52:55;9.00;99.90
11035;DHT22;5571;48.110;-1.706;2023-12-04T07:55:20;9.00;99.90
11035;DHT22;5571;48.110;-1.706;2023-12-04T07:57:46;9.00;99.90
11035;DHT22;5571;48.110;-1.706;2023-12-04T08:00:13;9.00;99.90
11035;DHT22;5571;48.110;-1.706;2023-12-04T08:02:39;9.10;99.90
11035;DHT22;5571;48.110;-1.706;2023-12-04T08:05:05;9.20;99.90
11035;DHT22;5571;48.110;-1.706;2023-12-04T08:07:31;9.20;99.90
11035;DHT22;5571;48.110;-1.706;2023-12-04T08:09:57;9.30;99.90
11035;DHT22;5571;48.110;-1.706;2023-12-04T08:12:23;9.30;99.90
11035;DHT22;5571;48.110;-1.706;2023-12-04T08:14:48;9.40;99.90
11035;DHT22;5571;48.110;-1.706;2023-12-04T08:17:14;9.30;99.90
11035;DHT22;5571;48.110;-1.706;2023-12-04T08:19:40;9.30;99.90
11035;DHT22;5571;48.110;-1.706;2023-12-04T08:22:05;9.30;99.90
11035;DHT22;5571;48.110;-1.706;2023-12-04T08:24:32;9.30;99.90
11035;DHT22;5571;48.110;-1.706;2023-12-04T08:26:57;9.30;99.90
11035;DHT22;5571;48.110;-1.706;2023-12-04T08:29:23;9.40;99.90
11035;DHT22;5571;48.110;-1.706;2023-12-04T08:31:49;9.30;99.90
11035;DHT22;5571;48.110;-1.706;2023-12-04T08:34:14;9.30;99.90
11035;DHT22;5571;48.110;-1.706;2023-12-04T08:36:41;9.30;99.90
11035;DHT22;5571;48.110;-1.706;2023-12-04T08:39:06;9.30;99.90
11035;DHT22;5571;48.110;-1.706;2023-12-04T08:41:32;9.30;99.90
11035;DHT22;5571;48.110;-1.706;2023-12-04T08:43:57;9.30;99.90
11035;DHT22;5571;48.110;-1.706;2023-12-04T08:46:23;9.40;99.90
11035;DHT22;5571;48.110;-1.706;2023-12-04T08:48:49;9.40;99.90
11035;DHT22;5571;48.110;-1.706;2023-12-04T08:51:16;9.50;99.90
11035;DHT22;5571;48.110;-1.706;2023-12-04T08:53:42;9.60;99.90
11035;DHT22;5571;48.110;-1.706;2023-12-04T08:56:08;9.70;99.90
11035;DHT22;5571;48.110;-1.706;2023-12-04T08:58:34;9.70;99.90
11035;DHT22;5571;48.110;-1.706;2023-12-04T09:00:59;9.80;99.90
11035;DHT22;5571;48.110;-1.706;2023-12-04T09:03:25;9.70;99.90
11035;DHT22;5571;48.110;-1.706;2023-12-04T09:05:50;9.70;99.90
11035;DHT22;5571;48.110;-1.706;2023-12-04T09:08:17;9.70;99.90
11035;DHT22;5571;48.110;-1.706;2023-12-04T09:10:44;9.60;99.90
11035;DHT22;5571;48.110;-1.706;2023-12-04T09:13:11;9.60;99.90
11035;DHT22;5571;48.110;-1.706;2023-12-04T09:15:36;9.60;99.90
11035;DHT22;5571;48.110;-1.706;2023-12-04T09:18:02;9.60;99.90
11035;DHT22;5571;48.110;-1.706;2023-12-04T09:20:28;9.60;99.90
11035;DHT22;5571;48.110;-1.706;2023-12-04T09:22:53;9.60;99.90
11035;DHT22;5571;48.110;-1.706;2023-12-04T09:25:19;9.70;99.90
11035;DHT22;5571;48.110;-1.706;2023-12-04T09:27:45;9.70;99.90
11035;DHT22;5571;48.110;-1.706;2023-12-04T09:30:11;9.80;99.90
11035;DHT22;5571;48.110;-1.706;2023-12-04T09:32:37;9.80;99.90
11035;DHT22;5571;48.110;-1.706;2023-12-04T09:35:03;9.80;99.90
11035;DHT22;5571;48.110;-1.706;2023-12-04T09:37:29;9.90;99.90
11035;DHT22;5571;48.110;-1.706;2023-12-04T09:39:54;9.90;99.90
11035;DHT22;5571;48.110;-1.706;2023-12-04T09:42:20;10.00;99.90
11035;DHT22;5571;48.110;-1.706;2023-12-04T09:44:47;10.00;99.90
11035;DHT22;5571;48.110;-1.706;2023-12-04T09:47:17;10.00;99.90
11035;DHT22;5571;48.110;-1.706;2023-12-04T09:49:46;10.10;99.90
11035;DHT22;5571;48.110;-1.706;2023-12-04T09:52:12;10.10;99.90
11035;DHT22;5571;48.110;-1.706;2023-12-04T09:54:39;10.20;99.90
11035;DHT22;5571;48.110;-1.706;2023-12-04T09:57:05;10.20;99.90
11035;DHT22;5571;48.110;-1.706;2023-12-04T09:59:31;10.20;99.90
11035;DHT22;5571;48.110;-1.706;2023-12-04T10:01:57;10.20;99.90
11035;DHT22;5571;48.110;-1.706;2023-12-04T10:04:24;10.30;99.90
11035;DHT22;5571;48.110;-1.706;2023-12-04T10:06:51;10.30;99.90
11035;DHT22;5571;48.110;-1.706;2023-12-04T10:09:18;10.30;99.90
11035;DHT22;5571;48.110;-1.706;2023-12-04T10:11:47;10.30;99.90
11035;DHT22;5571;48.110;-1.706;2023-12-04T10:14:15;10.40;99.90
11035;DHT22;5571;48.110;-1.706;2023-12-04T10:16:44;10.30;99.90
11035;DHT22;5571;48.110;-1.706;2023-12-04T10:21:49;10.40;99.90
11035;DHT22;5571;48.110;-1.706;2023-12-04T10:24:35;10.40;99.90
11035;DHT22;5571;48.110;-1.706;2023-12-04T10:27:02;10.40;99.90
11035;DHT22;5571;48.110;-1.706;2023-12-04T10:29:43;10.50;99.90
11035;DHT22;5571;48.110;-1.706;2023-12-04T10:32:09;10.50;99.90
11035;DHT22;5571;48.110;-1.706;2023-12-04T10:34:35;10.60;99.90
11035;DHT22;5571;48.110;-1.706;2023-12-04T10:37:03;10.60;99.90
11035;DHT22;5571;48.110;-1.706;2023-12-04T10:39:28;10.60;99.90
11035;DHT22;5571;48.110;-1.706;2023-12-04T10:42:02;10.70;99.90
11035;DHT22;5571;48.110;-1.706;2023-12-04T10:44:28;10.80;99.90
11035;DHT22;5571;48.110;-1.706;2023-12-04T10:46:56;10.80;99.90
11035;DHT22;5571;48.110;-1.706;2023-12-04T10:49:26;10.80;99.90
11035;DHT22;5571;48.110;-1.706;2023-12-04T10:51:55;10.80;99.90
11035;DHT22;5571;48.110;-1.706;2023-12-04T10:54:21;10.70;99.90
11035;DHT22;5571;48.110;-1.706;2023-12-04T10:56:48;10.70;99.90
11035;DHT22;5571;48.110;-1.706;2023-12-04T10:59:23;10.80;99.90
11035;DHT22;5571;48.110;-1.706;2023-12-04T11:01:51;10.80;99.90
11035;DHT22;5571;48.110;-1.706;2023-12-04T11:04:21;10.90;99.90
11035;DHT22;5571;48.110;-1.706;2023-12-04T11:06:52;10.90;99.90
11035;DHT22;5571;48.110;-1.706;2023-12-04T11:09:20;10.90;99.90
11035;DHT22;5571;48.110;-1.706;2023-12-04T11:11:50;10.90;99.90
11035;DHT22;5571;48.110;-1.706;2023-12-04T11:14:21;11.00;99.90
11035;DHT22;5571;48.110;-1.706;2023-12-04T11:16:57;11.00;99.90
11035;DHT22;5571;48.110;-1.706;2023-12-04T11:19:32;11.00;99.90
11035;DHT22;5571;48.110;-1.706;2023-12-04T11:22:00;11.00;99.90
11035;DHT22;5571;48.110;-1.706;2023-12-04T11:24:27;11.00;99.90
11035;DHT22;5571;48.110;-1.706;2023-12-04T11:26:54;11.00;99.90
11035;DHT22;5571;48.110;-1.706;2023-12-04T11:29:21;11.00;99.90
11035;DHT22;5571;48.110;-1.706;2023-12-04T11:31:47;11.10;99.90
11035;DHT22;5571;48.110;-1.706;2023-12-04T11:34:13;11.00;99.90
11035;DHT22;5571;48.110;-1.706;2023-12-04T11:36:39;11.00;99.90
11035;DHT22;5571;48.110;-1.706;2023-12-04T11:39:09;11.10;99.90
11035;DHT22;5571;48.110;-1.706;2023-12-04T11:41:40;11.10;99.90
11035;DHT22;5571;48.110;-1.706;2023-12-04T11:44:12;11.10;99.90
11035;DHT22;5571;48.110;-1.706;2023-12-04T11:46:41;11.10;99.90
11035;DHT22;5571;48.110;-1.706;2023-12-04T11:51:55;11.20;99.90
11035;DHT22;5571;48.110;-1.706;2023-12-04T11:54:21;11.30;99.90
11035;DHT22;5571;48.110;-1.706;2023-12-04T11:57:19;11.30;99.90
11035;DHT22;5571;48.110;-1.706;2023-12-04T11:59:46;11.40;99.90
11035;DHT22;5571;48.110;-1.706;2023-12-04T12:02:13;11.40;99.90
11035;DHT22;5571;48.110;-1.706;2023-12-04T12:04:39;11.40;99.90
11035;DHT22;5571;48.110;-1.706;2023-12-04T12:07:05;11.50;99.90
11035;DHT22;5571;48.110;-1.706;2023-12-04T12:09:33;11.50;99.90
11035;DHT22;5571;48.110;-1.706;2023-12-04T12:12:03;11.50;99.90
11035;DHT22;5571;48.110;-1.706;2023-12-04T12:14:29;11.50;99.90
11035;DHT22;5571;48.110;-1.706;2023-12-04T12:16:57;11.50;99.90
11035;DHT22;5571;48.110;-1.706;2023-12-04T12:19:24;11.50;99.90
11035;DHT22;5571;48.110;-1.706;2023-12-04T12:21:49;11.50;99.90
11035;DHT22;5571;48.110;-1.706;2023-12-04T12:24:17;11.50;99.90
11035;DHT22;5571;48.110;-1.706;2023-12-04T12:26:43;11.60;99.90
11035;DHT22;5571;48.110;-1.706;2023-12-04T12:29:09;11.70;99.90
11035;DHT22;5571;48.110;-1.706;2023-12-04T12:31:34;11.70;99.90
11035;DHT22;5571;48.110;-1.706;2023-12-04T12:34:00;11.70;99.90
11035;DHT22;5571;48.110;-1.706;2023-12-04T12:36:26;11.60;99.90
11035;DHT22;5571;48.110;-1.706;2023-12-04T12:38:53;11.60;99.90
11035;DHT22;5571;48.110;-1.706;2023-12-04T12:41:18;11.50;99.90
11035;DHT22;5571;48.110;-1.706;2023-12-04T12:43:45;11.50;99.90
11035;DHT22;5571;48.110;-1.706;2023-12-04T12:46:11;11.40;99.90
11035;DHT22;5571;48.110;-1.706;2023-12-04T12:48:37;11.40;99.90
11035;DHT22;5571;48.110;-1.706;2023-12-04T12:51:03;11.30;99.90
11035;DHT22;5571;48.110;-1.706;2023-12-04T12:53:31;11.20;99.90
11035;DHT22;5571;48.110;-1.706;2023-12-04T12:55:59;11.20;99.90
11035;DHT22;5571;48.110;-1.706;2023-12-04T12:58:25;11.20;99.90
11035;DHT22;5571;48.110;-1.706;2023-12-04T13:00:51;11.10;99.90
11035;DHT22;5571;48.110;-1.706;2023-12-04T13:03:17;11.10;99.90
11035;DHT22;5571;48.110;-1.706;2023-12-04T13:05:43;11.10;99.90
11035;DHT22;5571;48.110;-1.706;2023-12-04T13:08:09;11.10;99.90
11035;DHT22;5571;48.110;-1.706;2023-12-04T13:10:37;11.00;99.90
11035;DHT22;5571;48.110;-1.706;2023-12-04T13:13:02;11.00;99.90
11035;DHT22;5571;48.110;-1.706;2023-12-04T13:15:28;11.00;99.90
11035;DHT22;5571;48.110;-1.706;2023-12-04T13:17:54;11.10;99.90
11035;DHT22;5571;48.110;-1.706;2023-12-04T13:20:19;11.10;99.90
11035;DHT22;5571;48.110;-1.706;2023-12-04T13:22:45;11.10;99.90
11035;DHT22;5571;48.110;-1.706;2023-12-04T13:25:11;11.10;99.90
11035;DHT22;5571;48.110;-1.706;2023-12-04T13:27:37;11.10;99.90
11035;DHT22;5571;48.110;-1.706;2023-12-04T13:30:07;11.20;99.90
11035;DHT22;5571;48.110;-1.706;2023-12-04T13:32:36;11.30;99.90
11035;DHT22;5571;48.110;-1.706;2023-12-04T13:35:03;11.30;99.90
11035;DHT22;5571;48.110;-1.706;2023-12-04T13:37:33;11.40;99.90
11035;DHT22;5571;48.110;-1.706;2023-12-04T13:39:59;11.60;99.90
11035;DHT22;5571;48.110;-1.706;2023-12-04T13:42:29;11.60;99.90
11035;DHT22;5571;48.110;-1.706;2023-12-04T13:45:13;11.90;99.90
11035;DHT22;5571;48.110;-1.706;2023-12-04T13:47:39;11.90;99.90
11035;DHT22;5571;48.110;-1.706;2023-12-04T13:50:08;11.70;99.90
11035;DHT22;5571;48.110;-1.706;2023-12-04T13:52:35;11.50;99.90
11035;DHT22;5571;48.110;-1.706;2023-12-04T13:55:00;11.40;99.90
11035;DHT22;5571;48.110;-1.706;2023-12-04T13:57:26;11.40;99.90
11035;DHT22;5571;48.110;-1.706;2023-12-04T14:00:01;11.20;99.90
11035;DHT22;5571;48.110;-1.706;2023-12-04T14:02:27;11.10;99.90
11035;DHT22;5571;48.110;-1.706;2023-12-04T14:04:53;11.10;99.90
11035;DHT22;5571;48.110;-1.706;2023-12-04T14:07:19;11.00;99.90
11035;DHT22;5571;48.110;-1.706;2023-12-04T14:09:44;11.00;99.90
11035;DHT22;5571;48.110;-1.706;2023-12-04T14:12:10;11.00;99.90
11035;DHT22;5571;48.110;-1.706;2023-12-04T14:14:37;10.90;99.90
11035;DHT22;5571;48.110;-1.706;2023-12-04T14:17:05;10.80;99.90
11035;DHT22;5571;48.110;-1.706;2023-12-04T14:19:32;10.80;99.90
11035;DHT22;5571;48.110;-1.706;2023-12-04T14:21:58;10.80;99.90
11035;DHT22;5571;48.110;-1.706;2023-12-04T14:24:24;10.80;99.90
11035;DHT22;5571;48.110;-1.706;2023-12-04T14:26:51;10.80;99.90
11035;DHT22;5571;48.110;-1.706;2023-12-04T14:29:19;10.70;99.90
11035;DHT22;5571;48.110;-1.706;2023-12-04T14:31:44;10.70;99.90
11035;DHT22;5571;48.110;-1.706;2023-12-04T14:34:10;10.70;99.90
11035;DHT22;5571;48.110;-1.706;2023-12-04T14:36:36;10.70;99.90
11035;DHT22;5571;48.110;-1.706;2023-12-04T14:39:02;10.70;99.90
11035;DHT22;5571;48.110;-1.706;2023-12-04T14:41:28;10.70;99.90
11035;DHT22;5571;48.110;-1.706;2023-12-04T14:43:54;10.80;99.90
11035;DHT22;5571;48.110;-1.706;2023-12-04T14:46:20;10.70;99.90
11035;DHT22;5571;48.110;-1.706;2023-12-04T14:48:47;10.70;99.90
11035;DHT22;5571;48.110;-1.706;2023-12-04T14:51:12;10.70;99.90
11035;DHT22;5571;48.110;-1.706;2023-12-04T14:53:38;10.70;99.90
11035;DHT22;5571;48.110;-1.706;2023-12-04T14:56:29;10.70;99.90
11035;DHT22;5571;48.110;-1.706;2023-12-04T14:59:13;10.60;99.90
11035;DHT22;5571;48.110;-1.706;2023-12-04T15:01:57;10.60;99.90
11035;DHT22;5571;48.110;-1.706;2023-12-04T15:04:41;10.50;99.90
11035;DHT22;5571;48.110;-1.706;2023-12-04T15:07:26;10.50;99.90
11035;DHT22;5571;48.110;-1.706;2023-12-04T15:09:57;10.40;99.90
11035;DHT22;5571;48.110;-1.706;2023-12-04T15:12:41;10.40;99.90
11035;DHT22;5571;48.110;-1.706;2023-12-04T15:15:25;10.20;99.90
11035;DHT22;5571;48.110;-1.706;2023-12-04T15:17:51;10.10;99.90
11035;DHT22;5571;48.110;-1.706;2023-12-04T15:20:21;10.00;99.90
11035;DHT22;5571;48.110;-1.706;2023-12-04T15:22:52;9.90;99.90
11035;DHT22;5571;48.110;-1.706;2023-12-04T15:25:18;9.90;99.90
11035;DHT22;5571;48.110;-1.706;2023-12-04T15:27:46;9.80;99.90
11035;DHT22;5571;48.110;-1.706;2023-12-04T15:30:11;9.80;99.90
11035;DHT22;5571;48.110;-1.706;2023-12-04T15:32:38;9.80;99.90
11035;DHT22;5571;48.110;-1.706;2023-12-04T15:35:05;9.80;99.90
11035;DHT22;5571;48.110;-1.706;2023-12-04T15:37:31;9.70;99.90
11035;DHT22;5571;48.110;-1.706;2023-12-04T15:39:56;9.80;99.90
11035;DHT22;5571;48.110;-1.706;2023-12-04T15:42:22;9.70;99.90